Yotvata, Israel
Current Conditions -  °F | °C
As of 6:00 AM on Wednesday 22 Oct 2014 (Local Time) from OJAQ Reporting Station
Clear Clear  
Wind Chill: 64°   Ceiling: Unl
Heat Index: 64°   Visibility: 6mi
Dew Point: 52°   Wind: 0mph
Humidity: 64%   Direction: NA
Pressure: 29.97"   Gusts: NA
Location:  29.91°N, 35.07°E
Report Text: OJAQ 220300Z 00000KT CAVOK 18/11 Q1015 NOSIG
Loading
Personal Weather Stations






























Interactive Weather Map
Tropical Storm Tracking
New forecast layout! Learn more

10-Day Weather Forecast

Advertisements
Track Severe Weather on mobile